Tiempo atmosférico en la estación meteorológica de La Puebla De Los Infantes, Sevilla (200 m.)



Fecha
DESCASC
Temp. máxima en grados centígrados (hora)
DESCASC
Temp. mínima en grados centígrados (hora)
DESCASC
Temp. media en grados centígrados
DESCASC
Racha de viento máxima en m/sg (hora)
DESCASC
Velocidad máxima media en intervalos de 10 minutos(hora)
DESCASC
Precipitaciones diarias en mm
DESCASC
Precipitaciones de 00:00 a 06:00 en mm
DESCASC
Precipitaciones de 06:00 a 12:00 en mm
DESCASC
Precipitaciones de 12:00 a 18:00 en mm
DESCASC
Precipitaciones de 18:00 a 24:00 en mm
DESCASC
13-01-2021 14.4 (16:10) -6 (08:30) 4.2 3.89 (13:50) 2.78 (13:50) -- -- -- -- --
12-01-2021 11.3 (17:00) -4.6 (08:50) 3.4 4.44 (13:30) 2.78 (13:30) -- -- -- -- --
11-01-2021 12.1 (15:50) -0.3 (05:40) 5.9 5.56 (16:50) 2.78 (17:10) -- -- -- -- --
10-01-2021 9.7 (15:30) 0.6 (07:50) 5.1 7.5 (03:40) 4.44 (03:50) -- -- -- -- --
09-01-2021 8 (15:40) 0.6 (00:00) 4.3 6.67 (14:30) 3.33 (12:50) -- -- -- -- --
08-01-2021 6.8 (17:20) 5.1 (00:00) 6 6.67 (15:50) 3.33 (15:50) -- -- -- -- --
07-01-2021 7.4 (15:50) 5.3 (00:00) 6.4 4.17 (06:20) 2.5 (12:40) -- -- -- -- --
06-01-2021 10.5 (14:40) -2 (-00:0) 4.3 5.56 (14:10) 3.61 (15:00) -- -- -- -- --
05-01-2021 10.5 (15:50) -0.7 (-00:0) 4.9 5 (13:20) 3.06 (13:20) 0 0 0 0 0
04-01-2021 10.9 (15:20) -5.8 (-00:0) 2.5 5.83 (16:30) 3.33 (16:30) 0 0 0 0 0
03-01-2021 11 (16:20) -5.9 (-00:0) 2.5 5 (16:40) 2.78 (14:50) 0 0 0 0 0
02-01-2021 -- (--) -- (--) -- -- (--) -- (--) -- -- -- 0 0
01-01-2021 -- (--) -- (--) -- -- (--) -- (--) -- 0.2 0 -- --
31-12-2020 11.1 (15:40) -4.4 (-00:0) 3.4 8.06 (22:50) 4.72 (23:40) 0 0 0 0 0
30-12-2020 12 (16:30) -1.9 (-00:0) 5.1 7.78 (03:50) 3.61 (03:50) 0 0 0 0 0
29-12-2020 13.1 (16:10) -2.5 (-00:0) 5.3 8.61 (17:00) 5.28 (16:00) 0 0 0 0 0
28-12-2020 14.3 (15:10) -1.3 (-00:0) 6.5 10.56 (15:50) 6.94 (15:50) 2.8 0 2.8 0 0
27-12-2020 12.2 (15:20) -4 (-00:0) 4.1 5 (15:50) 2.78 (15:10) 0 0 0 0 0
26-12-2020 10.9 (16:10) -1.8 (-00:0) 4.5 7.5 (01:20) 5.28 (12:30) 0 0 0 0 0
25-12-2020 15 (15:10) 4 (00:00) 9.5 8.61 (22:30) 5.28 (22:30) 0 0 0 0 0
24-12-2020 16 (13:10) 7 (00:00) 11.5 3.06 (13:50) 1.67 (13:50) 0 0 0 0 0
23-12-2020 14.2 (15:00) 1.8 (08:50) 8 2.78 (15:50) 1.11 (15:50) 0 0 0 0 0
21-12-2020 17.2 (15:40) 3.1 (00:00) 10.2 3.89 (15:30) 2.5 (15:00) 0 0 0 0 0
20-12-2020 16.7 (16:40) 6.5 (00:00) 11.6 5.28 (07:50) 3.33 (15:30) 3.2 3.2 0 0 0
19-12-2020 11.3 (22:50) 5 (00:00) 8.2 3.33 (10:20) 1.67 (15:40) 10.2 0 0.6 5.6 4
18-12-2020 13.8 (16:20) 3 (00:00) 8.4 3.06 (12:40) 1.67 (11:30) 0.2 0 0 0.2 0
17-12-2020 15 (14:50) 6 (00:00) 10.5 3.61 (14:30) 1.67 (15:00) 0 0 0 0 0

Gráficas

Temp. máximas Temp. mínimas Temp. medias Precipitaciones Rachas de viento máximas Velocidades máximas media en intervalos de 10 minutos

Datos horarios

Fecha y hora oficial Temperatura (ºC) Velocidad del viento (km/h) Dirección del viento Racha (km/h) Dirección de racha Precipitación (mm) Presión (hPa) Tendencia (hPa) Humedad (%)
2021-01-15 23:00:00 -0.6 0 Calma 3 Norte 0 -- -- 93
2021-01-15 22:00:00 0.4 0 Calma 3 Norte 0 -- -- 90
2021-01-15 21:00:00 1.8 0 Calma 3 Noroeste 0 -- -- 88
2021-01-15 20:00:00 4.4 0 Calma 0 Calma 0 -- -- 82
2021-01-15 19:00:00 8.7 0 Calma 2 Noroeste 0 -- -- 73
2021-01-15 18:00:00 14.2 0 Calma 5 Oeste 0 -- -- 60
2021-01-15 17:00:00 15 0 Calma 8 Sudoeste 0 -- -- 56
2021-01-15 16:00:00 14.8 0 Calma 10 Sudeste 0 -- -- 54
2021-01-15 15:00:00 14.2 4 Sudeste 17 Sudeste 0 -- -- 54
2021-01-15 14:00:00 14 6 Sudeste 13 Sudeste 0 -- -- 55
2021-01-15 13:00:00 12.4 2 Sudeste 11 Este 0 -- -- 64
2021-01-15 12:00:00 9.7 0 Calma 3 Sudeste 0 -- -- 68
2021-01-15 11:00:00 4.2 0 Calma 0 Calma 0 -- -- 89
2021-01-15 10:00:00 -0.3 0 Calma 3 Oeste 0 -- -- 99
2021-01-15 09:00:00 -4.5 0 Calma 2 Noroeste -- -- -- 95
2021-01-15 08:00:00 -4.5 0 Calma 2 Oeste -- -- -- 96
2021-01-15 07:00:00 -4.2 0 Calma 2 Norte -- -- -- 95
2021-01-15 06:00:00 -4.2 0 Calma 2 Noroeste -- -- -- 94
2021-01-15 05:00:00 -3.6 0 Calma -- -- -- -- -- 93
2021-01-15 04:00:00 -2.7 0 Calma 2 Noroeste -- -- -- 93
2021-01-15 03:00:00 -1.4 2 Norte 4 Norte -- -- -- 94
2021-01-15 02:00:00 -0.7 0 Calma 3 Noroeste -- -- -- 92
2021-01-15 01:00:00 1 0 Calma 8 Oeste -- -- -- 90
2021-01-15 00:00:00 0.9 0 Calma 5 Norte -- -- -- 93
2021-01-14 23:00:00 0.2 0 Calma 12 Norte -- -- -- 94
2021-01-14 22:00:00 -0.5 0 Calma 2 Norte -- -- -- 91
2021-01-14 21:00:00 1.1 0 Calma 2 Noroeste -- -- -- 86
2021-01-14 20:00:00 3.4 0 Calma 3 Norte -- -- -- 84
2021-01-14 19:00:00 6.9 0 Calma 0 Calma -- -- -- 75
2021-01-14 18:00:00 11.6 0 Calma 8 Sudoeste -- -- -- 62
2021-01-14 17:00:00 12.8 2 Sudoeste 10 Sudoeste -- -- -- 57
2021-01-14 16:00:00 12.7 3 Sudoeste 16 Sur -- -- -- 57
2021-01-14 15:00:00 12.2 7 Sur 14 Sur -- -- -- 61
2021-01-14 14:00:00 11.5 2 Sur 7 Sudeste -- -- -- 61
2021-01-14 13:00:00 -- -- -- -- -- -- -- -- --
2021-01-14 12:00:00 7.2 0 Calma 4 Este -- -- -- 73
2021-01-14 11:00:00 2.8 0 Calma 2 Nordeste -- -- -- 92
2021-01-14 10:00:00 -1.4 0 Calma 2 Noroeste -- -- -- 98
2021-01-14 09:00:00 -5.3 0 Calma 2 Noroeste -- -- -- 94
2021-01-14 08:00:00 -5.2 0 Calma -- -- -- -- -- 94
2021-01-14 07:00:00 -4.8 0 Calma 2 Norte -- -- -- 94
2021-01-14 06:00:00 -4.5 0 Calma 2 Norte -- -- -- 94
2021-01-14 05:00:00 -4.2 0 Calma 2 Norte -- -- -- 94
2021-01-14 04:00:00 -3.8 0 Calma 3 Noroeste -- -- -- 94
2021-01-14 03:00:00 -3.7 0 Calma 2 Noroeste -- -- -- 94
2021-01-14 02:00:00 -3.4 0 Calma 2 Sudoeste -- -- -- 94
2021-01-14 01:00:00 -2.9 0 Calma 2 Norte -- -- -- 94
2021-01-14 00:00:00 -2.2 0 Calma 4 Noroeste -- -- -- 93
2021-01-13 23:00:00 -1.7 0 Calma 2 Norte -- -- -- 91
2021-01-13 22:00:00 -0.6 0 Calma 5 Noroeste -- -- -- 90
2021-01-13 21:00:00 0.7 0 Calma 3 Oeste -- -- -- 86
2021-01-13 20:00:00 3.1 0 Calma 4 Noroeste -- -- -- 82
2021-01-13 19:00:00 6.5 2 Norte 4 Norte -- -- -- 75
2021-01-13 18:00:00 13.2 2 Sur 9 Oeste -- -- -- 53
2021-01-13 17:00:00 14.2 5 Oeste 11 Oeste -- -- -- 50
2021-01-13 16:00:00 14.3 4 Sur 11 Sur -- -- -- 53
2021-01-13 15:00:00 13.6 5 Sur 13 Sudeste -- -- -- 50
2021-01-13 14:00:00 12.4 9 Sudeste 14 Sudeste -- -- -- 54
2021-01-13 13:00:00 11.1 0 Calma 3 Este -- -- -- 50
2021-01-13 12:00:00 7.8 0 Calma 4 Sur -- -- -- 69
2021-01-13 11:00:00 2.8 0 Calma 2 Sudeste -- -- -- 90
2021-01-13 10:00:00 -1.4 0 Calma 2 Noroeste -- -- -- 99
2021-01-13 09:00:00 -5.9 0 Calma 2 Oeste -- -- -- 95
2021-01-13 08:00:00 -5.9 0 Calma 0 Calma -- -- -- 94
2021-01-13 07:00:00 -5.5 0 Calma 2 Sudoeste -- -- -- 94
2021-01-13 06:00:00 -5.1 0 Calma 2 Oeste -- -- -- 94
2021-01-13 05:00:00 -4.6 0 Calma 3 Norte -- -- -- 94
2021-01-13 04:00:00 -4.1 0 Calma 2 Norte -- -- -- 93
2021-01-13 03:00:00 -3.8 0 Calma 3 Oeste -- -- -- 93
2021-01-13 02:00:00 -3.2 0 Calma 3 Noroeste -- -- -- 95
2021-01-13 01:00:00 -3 2 Oeste 3 Noroeste -- -- -- 93
2021-01-13 00:00:00 -2.6 0 Calma 3 Norte -- -- -- 93
2021-01-12 23:00:00 -2 0 Calma 3 Norte -- -- -- 92
2021-01-12 22:00:00 -1.2 0 Calma 4 Este -- -- -- 92
2021-01-12 21:00:00 -0.4 0 Calma 3 Noroeste -- -- -- 89
2021-01-12 20:00:00 1.7 0 Calma 3 Norte -- -- -- 82
2021-01-12 19:00:00 4.8 0 Calma 2 Norte -- -- -- 75
2021-01-12 18:00:00 10.6 0 Calma 10 Sudeste -- -- -- 59
2021-01-12 17:00:00 11.3 3 Sudeste 12 Sudeste -- -- -- 50
2021-01-12 16:00:00 10.8 5 Sudeste 12 Este -- -- -- 52
2021-01-12 15:00:00 10.5 7 Sudeste 15 Sudeste -- -- -- 53
2021-01-12 14:00:00 9.6 7 Sudeste 16 Este -- -- -- 58
2021-01-12 13:00:00 8.3 6 Este 15 Sudeste -- -- -- 59
2021-01-12 12:00:00 7 5 Este 12 Este -- -- -- 60
2021-01-12 11:00:00 3.9 0 Calma 2 Este -- -- -- 70
2021-01-12 10:00:00 -0.9 0 Calma 0 Calma -- -- -- 96
2021-01-12 09:00:00 -4.6 0 Calma 2 Oeste -- -- -- 95
2021-01-12 08:00:00 -4.4 0 Calma 2 Noroeste -- -- -- 94
2021-01-12 07:00:00 -4.2 0 Calma 2 Nordeste -- -- -- 94
2021-01-12 06:00:00 -3.8 0 Calma 3 Sudoeste -- -- -- 93
2021-01-12 05:00:00 -3.3 0 Calma 2 Sur -- -- -- 94
2021-01-12 04:00:00 -2.9 0 Calma 2 Sur -- -- -- 93
2021-01-12 03:00:00 -2.3 0 Calma 2 Norte -- -- -- 91
2021-01-12 02:00:00 -1.3 0 Calma 2 Sur -- -- -- 88
2021-01-12 01:00:00 0.1 0 Calma 4 Noroeste -- -- -- 85
2021-01-12 00:00:00 2.8 0 Calma 10 Oeste -- -- -- 70
2021-01-11 23:00:00 2.8 2 Norte 8 Norte -- -- -- 75
2021-01-11 22:00:00 2.4 0 Calma 7 Oeste -- -- -- 82
2021-01-11 21:00:00 3.9 0 Calma 6 Sudoeste -- -- -- 78
2021-01-11 20:00:00 5.4 0 Calma 11 Norte -- -- -- 74
2021-01-11 19:00:00 7.2 8 Norte 19 Noroeste -- -- -- 66
2021-01-11 18:00:00 9.1 8 Norte 18 Noroeste -- -- -- 63
2021-01-11 17:00:00 11.4 8 Norte 20 Norte -- -- -- 55
2021-01-11 16:00:00 11.9 8 Norte 14 Noroeste -- -- -- 54
2021-01-11 15:00:00 11.5 6 Noroeste 14 Oeste -- -- -- 60
2021-01-11 14:00:00 10.1 0 Calma 15 Norte -- -- -- 62
2021-01-11 13:00:00 9.3 4 Norte 15 Este -- -- -- 65
2021-01-11 12:00:00 8.1 7 Norte 14 Norte -- -- -- 69
2021-01-11 11:00:00 6.1 9 Norte 17 Norte -- -- -- 73
2021-01-11 10:00:00 3.9 0 Calma 11 Norte -- -- -- 83
2021-01-11 09:00:00 1.2 2 Oeste 14 Nordeste -- -- -- 89
2021-01-11 08:00:00 2 4 Norte 15 Norte -- -- -- 86
2021-01-11 07:00:00 1.6 3 Nordeste 10 Norte -- -- -- 91
2021-01-11 06:00:00 0.2 4 Norte 10 Norte -- -- -- 95
2021-01-11 05:00:00 0.3 0 Calma 5 Nordeste -- -- -- 92
2021-01-11 04:00:00 1.5 0 Calma 9 Norte -- -- -- 91
2021-01-11 03:00:00 0.9 3 Norte 8 Norte -- -- -- 95
2021-01-11 02:00:00 0.9 0 Calma 7 Norte -- -- -- 94
2021-01-11 01:00:00 1.6 0 Calma 4 Norte -- -- -- 90
2021-01-11 00:00:00 4.8 2 Norte 9 Nordeste -- -- -- 83
2021-01-10 23:00:00 4.5 0 Calma 4 Norte -- -- -- 90
2021-01-10 22:00:00 4.5 0 Calma 4 Norte -- -- -- 91
2021-01-10 21:00:00 4.5 2 Noroeste 5 Noroeste -- -- -- 93
2021-01-10 20:00:00 4.7 0 Calma 4 Nordeste -- -- -- 90
2021-01-10 19:00:00 6.9 3 Nordeste 8 Norte -- -- -- 83
2021-01-10 18:00:00 8 5 Nordeste 19 Este -- -- -- 74
2021-01-10 17:00:00 9.2 7 Este 20 Este -- -- -- 64
2021-01-10 16:00:00 9.3 12 Este 20 Este -- -- -- 66
2021-01-10 15:00:00 8.9 7 Este 17 Este -- -- -- 71
2021-01-10 14:00:00 7.8 10 Este 17 Este -- -- -- 76
2021-01-10 13:00:00 6.4 4 Nordeste 8 Nordeste -- -- -- 87
2021-01-10 12:00:00 5 6 Norte 10 Norte -- -- -- 97
2021-01-10 11:00:00 3.8 0 Calma 2 Norte -- -- -- 99
2021-01-10 10:00:00 2.2 0 Calma 4 Sudoeste -- -- -- 99
2021-01-10 09:00:00 1.3 0 Calma 3 Norte -- -- -- 99
2021-01-10 08:00:00 0.6 0 Calma 4 Norte -- -- -- 98
2021-01-10 07:00:00 2.1 0 Calma 6 Sudeste -- -- -- 98
2021-01-10 06:00:00 2.8 3 Nordeste 9 Nordeste -- -- -- 98
2021-01-10 05:00:00 2.7 6 Nordeste 14 Sur -- -- -- 97
2021-01-10 04:00:00 3.1 11 Sur 27 Sur -- -- -- 97
2021-01-10 03:00:00 2.5 0 Calma 5 Nordeste -- -- -- 97
2021-01-10 02:00:00 2.4 4 Este 13 Oeste -- -- -- 98
2021-01-10 01:00:00 1.1 2 Este 8 Este -- -- -- 97
2021-01-10 00:00:00 1.5 0 Calma 7 Nordeste -- -- -- 95
2021-01-09 23:00:00 0.7 2 Norte 6 Sudeste -- -- -- 95
2021-01-09 22:00:00 1.8 0 Calma 3 Sudeste -- -- -- 96
2021-01-09 21:00:00 2 0 Calma 3 Sudoeste -- -- -- 95
2021-01-09 20:00:00 2.6 2 Sudeste 3 Sudeste -- -- -- 92
2021-01-09 19:00:00 4 0 Calma 4 Este -- -- -- 87
2021-01-09 18:00:00 6.6 3 Sudoeste 14 Sudoeste -- -- -- 77
2021-01-09 17:00:00 7.6 9 Sudoeste 23 Sur -- -- -- 71
2021-01-09 16:00:00 7.7 9 Sudoeste 21 Oeste -- -- -- 74
2021-01-09 15:00:00 6.7 11 Sudoeste 24 Oeste -- -- -- 79
2021-01-09 14:00:00 6.6 8 Sudoeste 21 Sur -- -- -- 85
2021-01-09 13:00:00 5.3 9 Sudoeste 23 Sudoeste -- -- -- 91
2021-01-09 12:00:00 5.4 8 Sudoeste 20 Sudoeste -- -- -- 93
2021-01-09 11:00:00 4 8 Sudoeste 21 Sudoeste -- -- -- 98
2021-01-09 10:00:00 4.2 12 Sudoeste 21 Sudoeste -- -- -- 98
2021-01-09 09:00:00 4 6 Sudoeste 13 Oeste -- -- -- 98
2021-01-09 08:00:00 4.1 9 Oeste 18 Oeste -- -- -- 97
2021-01-09 07:00:00 4.3 6 Sudoeste 13 Oeste -- -- -- 99
2021-01-09 06:00:00 4.6 2 Nordeste 4 Nordeste -- -- -- 99
2021-01-09 05:00:00 4.7 0 Calma 3 Este -- -- -- 98
2021-01-09 04:00:00 4.7 0 Calma 4 Nordeste -- -- -- 98
2021-01-09 03:00:00 4.9 2 Este 5 Este -- -- -- 98
2021-01-09 02:00:00 5.4 3 Nordeste 12 Noroeste -- -- -- 97
2021-01-09 01:00:00 5.7 3 Noroeste 18 Noroeste -- -- -- 96
2021-01-09 00:00:00 5.8 6 Noroeste 18 Noroeste -- -- -- 97
2021-01-08 23:00:00 5.7 4 Oeste 24 Noroeste -- -- -- 97
2021-01-08 22:00:00 5.8 5 Norte 15 Norte -- -- -- 97
2021-01-08 21:00:00 6.2 3 Oeste 18 Norte -- -- -- 97
2021-01-08 20:00:00 6.6 2 Sudoeste 12 Norte -- -- -- 97
2021-01-08 19:00:00 6.5 5 Norte 15 Nordeste -- -- -- 97
2021-01-08 18:00:00 6.6 5 Norte 15 Nordeste -- -- -- 97
2021-01-08 17:00:00 6.6 4 Norte 18 Nordeste -- -- -- 97
2021-01-08 16:00:00 6.4 4 Noroeste 24 Nordeste -- -- -- 97
2021-01-08 15:00:00 6.3 5 Nordeste 16 Nordeste -- -- -- 96
2021-01-08 14:00:00 6.4 3 Norte 13 Nordeste -- -- -- 96
2021-01-08 13:00:00 6.2 6 Norte 17 Norte -- -- -- 96
2021-01-08 12:00:00 6.3 6 Nordeste 19 Nordeste -- -- -- 95
2021-01-08 11:00:00 6.2 7 Nordeste 13 Norte -- -- -- 96
2021-01-08 10:00:00 5.9 7 Nordeste 17 Norte 0 -- -- 96
2021-01-08 09:00:00 5.9 10 Nordeste 18 Nordeste 0 -- -- 96
2021-01-08 08:00:00 5.8 6 Norte 14 Nordeste 0 -- -- 97
2021-01-08 07:00:00 5.7 3 Nordeste 10 Nordeste 0 -- -- 96
2021-01-08 06:00:00 5.7 3 Norte 12 Nordeste 0 -- -- 96
2021-01-08 05:00:00 5.7 6 Nordeste 9 Nordeste 0 -- -- 96
2021-01-08 04:00:00 5.3 3 Norte 7 Nordeste 0 -- -- 97
2021-01-08 03:00:00 5.3 5 Nordeste 10 Nordeste 0 -- -- 95
2021-01-08 02:00:00 5.2 5 Nordeste 12 Nordeste 0 -- -- 95
2021-01-08 01:00:00 5.2 5 Nordeste 14 Nordeste 0 -- -- 94
2021-01-08 00:00:00 5.3 7 Nordeste 12 Norte 0 -- -- 95
2021-01-07 23:00:00 5.6 4 Nordeste 10 Nordeste 0 -- -- 95
2021-01-07 22:00:00 5.8 4 Nordeste 10 Norte 0 -- -- 95
2021-01-07 21:00:00 6.1 6 Norte 13 Nordeste 0 -- -- 95
2021-01-07 20:00:00 6.3 6 Este 11 Nordeste 0 -- -- 97
2021-01-07 19:00:00 6.7 8 Este 11 Este 0 -- -- 95
2021-01-07 18:00:00 7.2 4 Nordeste 9 Este 0 -- -- 94
2021-01-07 17:00:00 7.4 4 Este 13 Nordeste 0 -- -- 93
2021-01-07 16:00:00 7.4 8 Nordeste 13 Nordeste 0 -- -- 91
2021-01-07 15:00:00 7.2 7 Este 13 Nordeste 0 -- -- 93
2021-01-07 14:00:00 7.1 8 Nordeste 13 Norte 0 -- -- 93
2021-01-07 13:00:00 6.8 6 Nordeste 13 Nordeste 0 -- -- 93
2021-01-07 12:00:00 6.6 6 Nordeste 12 Este 0 -- -- 95
2021-01-07 11:00:00 6.5 5 Nordeste 12 Norte 0 -- -- 94
2021-01-07 10:00:00 6.2 5 Norte 12 Nordeste 0 -- -- 94
2021-01-07 09:00:00 6.1 4 Nordeste 11 Nordeste 0 -- -- 95
2021-01-07 08:00:00 6.2 4 Nordeste 13 Norte 0 -- -- 94
2021-01-07 07:00:00 6.2 6 Nordeste 15 Nordeste 0 -- -- 94
2021-01-07 06:00:00 6.2 8 Nordeste 13 Nordeste 0 -- -- 95
2021-01-07 05:00:00 6.1 3 Este 5 Este 0 -- -- 96
2021-01-07 04:00:00 6.2 3 Nordeste 7 Nordeste 0 -- -- 95
2021-01-07 03:00:00 6.3 5 Nordeste 11 Este 0 -- -- 94
2021-01-07 02:00:00 6.3 5 Nordeste 10 Nordeste 0 -- -- 94
2021-01-07 01:00:00 6.4 6 Nordeste 10 Nordeste 0 -- -- 92
2021-01-07 00:00:00 6.3 5 Nordeste 10 Nordeste 0 -- -- 90
2021-01-06 23:00:00 6.3 0 Calma 0 Calma 0 -- -- 92
2021-01-06 22:00:00 6.5 0 Calma 6 Nordeste 0 -- -- 90
2021-01-06 21:00:00 7.1 3 Este 8 Nordeste 0 -- -- 85
2021-01-06 20:00:00 7.1 0 Calma 7 Este 0 -- -- 83
2021-01-06 19:00:00 7.8 4 Este 6 Este 0 -- -- 77
2021-01-06 18:00:00 8.9 4 Nordeste 10 Este 0 -- -- 74
2021-01-06 17:00:00 10 7 Este 17 Este 0 -- -- 69
2021-01-06 16:00:00 10.3 10 Nordeste 18 Nordeste 0 -- -- 65
2021-01-06 15:00:00 10.3 13 Este 20 Este 0 -- -- 63
2021-01-06 14:00:00 9.5 9 Nordeste 16 Nordeste 0 -- -- 64
2021-01-06 13:00:00 8.6 7 Nordeste 18 Este 0 -- -- 65
2021-01-06 12:00:00 7.7 11 Este 18 Este 0 -- -- 64
2021-01-06 11:00:00 5.6 2 Este 4 Este 0 -- -- 76
2021-01-06 10:00:00 3 0 Calma 3 Sur 0 -- -- 92
2021-01-06 09:00:00 2.1 0 Calma 3 Sur 0 -- -- 92
2021-01-06 08:00:00 1.3 0 Calma 3 Sudeste 0 -- -- 93
2021-01-06 07:00:00 0.6 2 Sur 4 Sur 0 -- -- 92
2021-01-06 06:00:00 -0.1 0 Calma 3 Sur 0 -- -- 96
2021-01-06 05:00:00 -2 0 Calma 3 Sur 0 -- -- 94
2021-01-06 04:00:00 -0.8 2 Sur 4 Sur 0 -- -- 94
2021-01-06 03:00:00 -0.5 0 Calma 3 Sur 0 -- -- 94
2021-01-06 02:00:00 -0.3 0 Calma 4 Sur 0 -- -- 94
2021-01-06 01:00:00 -0.1 2 Sur 5 Sur 0 -- -- 93
2021-01-06 00:00:00 0.5 0 Calma 4 Sur 0 -- -- 94
2021-01-05 23:00:00 0.5 0 Calma 4 Sur 0 -- -- 95
2021-01-05 22:00:00 -0.7 4 Nordeste 7 Norte 0 -- -- 92
2021-01-05 21:00:00 0.2 2 Sudoeste 3 Sudoeste 0 -- -- 88
2021-01-05 20:00:00 2.3 0 Calma 5 Noroeste 0 -- -- 85
2021-01-05 19:00:00 5.8 3 Nordeste 4 Nordeste 0 -- -- 79
2021-01-05 18:00:00 8.3 2 Nordeste 10 Este 0 -- -- 74
2021-01-05 17:00:00 9.6 5 Este 15 Este 0 -- -- 67
2021-01-05 16:00:00 10.5 9 Este 16 Este 0 -- -- 61
2021-01-05 15:00:00 9.8 6 Este 16 Sudeste 0 -- -- 66
2021-01-05 14:00:00 9.9 8 Este 18 Este 0 -- -- 67
2021-01-05 13:00:00 9.5 8 Este 17 Este 0 -- -- 73
2021-01-05 12:00:00 7.8 9 Este 16 Este 0 -- -- 81
2021-01-05 11:00:00 6.2 9 Este 14 Este 0 -- -- 86
2021-01-05 10:00:00 3.8 2 Sudeste 5 Sudeste 0 -- -- 99
2021-01-05 09:00:00 3 3 Sudeste 5 Nordeste 0 -- -- 97
2021-01-05 08:00:00 3 0 Calma 4 Sudeste 0 -- -- 97
2021-01-05 07:00:00 2.8 0 Calma 3 Sudoeste 0 -- -- 97
2021-01-05 06:00:00 3 0 Calma 3 Sudeste 0 -- -- 97
2021-01-05 05:00:00 2.9 0 Calma 4 Norte 0 -- -- 97
2021-01-05 04:00:00 2.8 0 Calma 4 Norte 0 -- -- 98
2021-01-05 03:00:00 2.5 0 Calma 2 Noroeste 0 -- -- 98
2021-01-05 02:00:00 1.9 0 Calma 6 Sudeste 0 -- -- 98
2021-01-05 01:00:00 -0.3 0 Calma 3 Este 0 -- -- 95
2021-01-05 00:00:00 0.5 2 Oeste 4 Norte 0 -- -- 94
2021-01-04 23:00:00 1.3 2 Noroeste 4 Noroeste 0 -- -- 90
2021-01-04 22:00:00 3.4 0 Calma 4 Noroeste 0 -- -- 92
2021-01-04 21:00:00 4.1 0 Calma 9 Oeste 0 -- -- 90
2021-01-04 20:00:00 6.4 5 Oeste 7 Oeste 0 -- -- 86
2021-01-04 19:00:00 7.5 4 Oeste 10 Oeste 0 -- -- 83
2021-01-04 18:00:00 8.9 3 Oeste 10 Sudoeste 0 -- -- 74
2021-01-04 17:00:00 9.6 7 Sudoeste 21 Sudoeste 0 -- -- 70
2021-01-04 16:00:00 9.8 11 Sudoeste 21 Sudoeste 0 -- -- 67
2021-01-04 15:00:00 10.3 10 Sur 19 Sur 0 -- -- 65
2021-01-04 14:00:00 9.4 7 Sur 18 Sur 0 -- -- 68
2021-01-04 13:00:00 8.1 8 Sur 17 Sur 0 -- -- 72
2021-01-04 12:00:00 5.9 0 Calma 3 Sur 0 -- -- 82
2021-01-04 11:00:00 1.9 0 Calma 2 Este 0 -- -- 94
2021-01-04 10:00:00 -2.1 0 Calma 2 Norte 0 -- -- 98
2021-01-04 09:00:00 -5.6 0 Calma 3 Noroeste 0 -- -- 95
2021-01-04 08:00:00 -5.6 0 Calma 2 Norte 0 -- -- 94
2021-01-04 07:00:00 -5 0 Calma 4 Noroeste 0 -- -- 94
2021-01-04 06:00:00 -4.9 0 Calma 5 Norte 0 -- -- 94
2021-01-04 05:00:00 -4.6 0 Calma 3 Norte 0 -- -- 94
2021-01-04 04:00:00 -4 0 Calma 4 Nordeste 0 -- -- 94
2021-01-04 03:00:00 -3.8 0 Calma 5 Oeste 0 -- -- 94
2021-01-04 02:00:00 -3.6 0 Calma 4 Nordeste 0 -- -- 94
2021-01-04 01:00:00 -3.3 0 Calma 2 Sudoeste 0 -- -- 93
2021-01-04 00:00:00 -2.8 0 Calma 4 Norte 0 -- -- 93
2021-01-03 23:00:00 -2.5 0 Calma 5 Norte 0 -- -- 91
2021-01-03 22:00:00 -1.6 2 Oeste 4 Sudoeste 0 -- -- 91
2021-01-03 21:00:00 -0.9 0 Calma 3 Norte 0 -- -- 88
2021-01-03 20:00:00 1.2 0 Calma 4 Noroeste 0 -- -- 85
2021-01-03 19:00:00 4.1 3 Noroeste 6 Oeste 0 -- -- 76
2021-01-03 18:00:00 9.4 3 Sudoeste 17 Sudoeste 0 -- -- 58
2021-01-03 17:00:00 10.8 10 Sudoeste 18 Sur 0 -- -- 51
2021-01-03 16:00:00 10.9 7 Sur 17 Sudoeste 0 -- -- 55
2021-01-03 15:00:00 9.9 9 Sur 16 Sur 0 -- -- 61
2021-01-03 14:00:00 8.7 10 Sur 17 Sur 0 -- -- 62
2021-01-03 13:00:00 7.8 8 Sur 13 Sur 0 -- -- 63
2021-01-03 12:00:00 6.3 0 Calma 5 Sur 0 -- -- 71
2021-01-03 11:00:00 2.7 0 Calma 2 Sur 0 -- -- 87
2021-01-03 10:00:00 -2 0 Calma 2 Este 0 -- -- 98
2021-01-03 09:00:00 -5.7 0 Calma 3 Noroeste 0 -- -- 95
2021-01-03 08:00:00 -5.6 0 Calma 3 Noroeste 0 -- -- 93
2021-01-03 07:00:00 -5 2 Noroeste 4 Sudoeste 0 -- -- 95
2021-01-03 06:00:00 -5 0 Calma 4 Noroeste 0 -- -- 94
2021-01-03 05:00:00 -4.6 0 Calma 4 Norte 0 -- -- 95
2021-01-03 04:00:00 -4.2 0 Calma 3 Oeste 0 -- -- 94
2021-01-03 03:00:00 -3.9 0 Calma 3 Sudoeste 0 -- -- 92
2021-01-03 02:00:00 -2.8 2 Norte 5 Noroeste 0 -- -- 95
2021-01-03 01:00:00 -3.6 2 Oeste 4 Sudoeste 0 -- -- 92
2021-01-03 00:00:00 -2.8 0 Calma 4 Norte 0 -- -- 92
2021-01-02 23:00:00 -2 0 Calma 4 Nordeste 0 -- -- 89
2021-01-02 22:00:00 -0.9 0 Calma 5 Noroeste 0 -- -- 88
2021-01-02 21:00:00 0.2 3 Norte 6 Norte 0 -- -- 86
2021-01-02 20:00:00 2.1 0 Calma 5 Noroeste 0 -- -- 79
2021-01-02 19:00:00 5.1 5 Noroeste 10 Noroeste 0 -- -- 68
2021-01-02 18:00:00 8.9 7 Noroeste 17 Norte 0 -- -- 56
2021-01-02 17:00:00 11 5 Norte 22 Norte 0 -- -- 48
2021-01-02 16:00:00 11.1 3 Sudoeste 12 Sudoeste 0 -- -- 54
2021-01-02 15:00:00 10.3 6 Sudoeste 13 Sur 0 -- -- 57
2021-01-02 14:00:00 9.4 4 Oeste 11 Oeste 0 -- -- 59